sensor_id;sensor_type;location;lat;lon;timestamp;noise_LAeq;noise_LA_min;noise_LA_max;noise_LA01;noise_LA95
74234;Laerm;62591;55.764;37.718;2023-07-20T00:00:57;43.03;37.72;53.09;;
74234;Laerm;62591;55.764;37.718;2023-07-20T00:03:43;41.53;37.01;50.39;;
74234;Laerm;62591;55.764;37.718;2023-07-20T00:06:12;41.68;37.53;49.81;;
74234;Laerm;62591;55.764;37.718;2023-07-20T00:08:42;44.48;37.49;52.30;;
74234;Laerm;62591;55.764;37.718;2023-07-20T00:11:11;42.06;36.89;51.08;;
74234;Laerm;62591;55.764;37.718;2023-07-20T00:13:40;42.24;36.74;52.37;;
74234;Laerm;62591;55.764;37.718;2023-07-20T00:16:09;46.02;40.58;53.09;;
74234;Laerm;62591;55.764;37.718;2023-07-20T00:18:38;47.87;40.92;55.44;;
74234;Laerm;62591;55.764;37.718;2023-07-20T00:21:06;43.31;38.63;48.58;;
74234;Laerm;62591;55.764;37.718;2023-07-20T00:23:35;43.75;38.55;50.51;;
74234;Laerm;62591;55.764;37.718;2023-07-20T00:26:05;42.48;37.43;52.46;;
74234;Laerm;62591;55.764;37.718;2023-07-20T00:28:34;44.59;39.32;51.41;;
74234;Laerm;62591;55.764;37.718;2023-07-20T00:31:02;44.90;38.24;51.53;;
74234;Laerm;62591;55.764;37.718;2023-07-20T00:33:31;48.02;40.47;55.12;;
74234;Laerm;62591;55.764;37.718;2023-07-20T00:36:00;44.08;37.91;53.22;;
74234;Laerm;62591;55.764;37.718;2023-07-20T00:38:29;48.37;37.33;56.18;;
74234;Laerm;62591;55.764;37.718;2023-07-20T00:40:58;42.44;37.36;48.54;;
74234;Laerm;62591;55.764;37.718;2023-07-20T00:43:28;43.99;38.89;50.58;;
74234;Laerm;62591;55.764;37.718;2023-07-20T00:45:57;43.57;38.39;51.09;;
74234;Laerm;62591;55.764;37.718;2023-07-20T00:48:26;46.08;38.72;53.50;;
74234;Laerm;62591;55.764;37.718;2023-07-20T00:50:54;44.46;37.25;52.55;;
74234;Laerm;62591;55.764;37.718;2023-07-20T00:53:24;42.65;36.86;49.14;;
74234;Laerm;62591;55.764;37.718;2023-07-20T00:55:53;40.10;36.76;44.40;;
74234;Laerm;62591;55.764;37.718;2023-07-20T00:58:22;44.40;37.62;52.04;;
74234;Laerm;62591;55.764;37.718;2023-07-20T01:00:53;43.96;38.68;53.10;;
74234;Laerm;62591;55.764;37.718;2023-07-20T01:03:21;42.78;37.49;48.21;;
74234;Laerm;62591;55.764;37.718;2023-07-20T01:05:54;46.79;37.87;56.03;;
74234;Laerm;62591;55.764;37.718;2023-07-20T01:08:28;42.55;38.77;47.45;;
74234;Laerm;62591;55.764;37.718;2023-07-20T01:11:05;45.54;37.93;54.98;;
74234;Laerm;62591;55.764;37.718;2023-07-20T01:13:37;47.70;38.17;61.61;;
74234;Laerm;62591;55.764;37.718;2023-07-20T01:16:07;41.87;36.57;53.20;;
74234;Laerm;62591;55.764;37.718;2023-07-20T01:18:36;44.54;36.92;56.87;;
74234;Laerm;62591;55.764;37.718;2023-07-20T01:21:08;47.09;37.04;55.79;;
74234;Laerm;62591;55.764;37.718;2023-07-20T01:24:00;44.17;36.12;56.38;;
74234;Laerm;62591;55.764;37.718;2023-07-20T01:26:53;44.39;37.21;57.54;;
74234;Laerm;62591;55.764;37.718;2023-07-20T01:29:42;47.22;37.53;58.05;;
74234;Laerm;62591;55.764;37.718;2023-07-20T01:32:16;43.06;37.24;51.32;;
74234;Laerm;62591;55.764;37.718;2023-07-20T01:34:46;45.49;37.51;55.54;;
74234;Laerm;62591;55.764;37.718;2023-07-20T01:37:20;40.56;36.96;45.60;;
74234;Laerm;62591;55.764;37.718;2023-07-20T01:39:52;42.64;37.40;48.76;;
74234;Laerm;62591;55.764;37.718;2023-07-20T01:42:24;41.44;36.26;47.40;;
74234;Laerm;62591;55.764;37.718;2023-07-20T01:44:53;41.37;37.06;53.19;;
74234;Laerm;62591;55.764;37.718;2023-07-20T01:47:25;42.78;36.76;54.70;;
74234;Laerm;62591;55.764;37.718;2023-07-20T01:49:54;45.12;36.67;56.41;;
74234;Laerm;62591;55.764;37.718;2023-07-20T01:52:23;46.85;38.53;57.19;;
74234;Laerm;62591;55.764;37.718;2023-07-20T01:54:51;42.93;39.03;51.14;;
74234;Laerm;62591;55.764;37.718;2023-07-20T01:57:20;43.84;38.84;51.35;;
74234;Laerm;62591;55.764;37.718;2023-07-20T01:59:48;41.76;37.38;48.86;;
74234;Laerm;62591;55.764;37.718;2023-07-20T02:02:20;45.94;38.99;54.51;;
74234;Laerm;62591;55.764;37.718;2023-07-20T02:04:50;42.84;38.68;50.12;;
74234;Laerm;62591;55.764;37.718;2023-07-20T02:07:20;42.09;37.36;51.81;;
74234;Laerm;62591;55.764;37.718;2023-07-20T02:09:50;44.20;38.07;52.96;;
74234;Laerm;62591;55.764;37.718;2023-07-20T02:12:19;47.02;37.31;54.92;;
74234;Laerm;62591;55.764;37.718;2023-07-20T02:14:49;44.39;37.96;56.24;;
74234;Laerm;62591;55.764;37.718;2023-07-20T02:17:19;43.41;38.47;50.70;;
74234;Laerm;62591;55.764;37.718;2023-07-20T02:20:09;44.38;38.58;54.29;;
74234;Laerm;62591;55.764;37.718;2023-07-20T02:22:39;42.44;38.16;51.47;;
74234;Laerm;62591;55.764;37.718;2023-07-20T02:25:09;43.99;38.30;52.40;;
74234;Laerm;62591;55.764;37.718;2023-07-20T02:27:38;46.47;38.68;54.79;;
74234;Laerm;62591;55.764;37.718;2023-07-20T02:30:07;42.90;36.75;61.16;;
74234;Laerm;62591;55.764;37.718;2023-07-20T02:32:39;44.41;38.98;59.11;;
74234;Laerm;62591;55.764;37.718;2023-07-20T02:35:13;42.72;38.67;53.95;;
74234;Laerm;62591;55.764;37.718;2023-07-20T02:37:42;47.91;40.27;56.13;;
74234;Laerm;62591;55.764;37.718;2023-07-20T02:40:11;48.37;40.32;56.85;;
74234;Laerm;62591;55.764;37.718;2023-07-20T02:42:40;47.28;39.78;71.95;;
74234;Laerm;62591;55.764;37.718;2023-07-20T02:45:09;43.54;39.02;53.00;;
74234;Laerm;62591;55.764;37.718;2023-07-20T02:47:38;46.29;40.47;55.18;;
74234;Laerm;62591;55.764;37.718;2023-07-20T02:50:08;46.10;39.77;53.71;;
74234;Laerm;62591;55.764;37.718;2023-07-20T02:52:38;47.61;40.09;55.39;;
74234;Laerm;62591;55.764;37.718;2023-07-20T02:55:08;45.79;39.72;65.71;;
74234;Laerm;62591;55.764;37.718;2023-07-20T02:57:36;46.15;39.94;53.02;;
74234;Laerm;62591;55.764;37.718;2023-07-20T03:00:06;45.40;39.48;52.16;;
74234;Laerm;62591;55.764;37.718;2023-07-20T03:02:35;46.13;39.74;52.03;;
74234;Laerm;62591;55.764;37.718;2023-07-20T03:05:05;45.67;38.99;52.99;;
74234;Laerm;62591;55.764;37.718;2023-07-20T03:07:34;47.16;39.31;54.38;;
74234;Laerm;62591;55.764;37.718;2023-07-20T03:10:05;45.34;39.86;52.79;;
74234;Laerm;62591;55.764;37.718;2023-07-20T03:12:36;47.50;40.43;54.38;;
74234;Laerm;62591;55.764;37.718;2023-07-20T03:15:06;47.60;39.83;53.56;;
74234;Laerm;62591;55.764;37.718;2023-07-20T03:17:35;49.15;42.24;57.68;;
74234;Laerm;62591;55.764;37.718;2023-07-20T03:20:05;48.68;40.64;59.70;;
74234;Laerm;62591;55.764;37.718;2023-07-20T03:22:36;47.89;41.29;55.29;;
74234;Laerm;62591;55.764;37.718;2023-07-20T03:25:07;45.95;39.73;52.72;;
74234;Laerm;62591;55.764;37.718;2023-07-20T03:27:36;47.17;40.20;54.82;;
74234;Laerm;62591;55.764;37.718;2023-07-20T03:30:06;49.15;40.21;59.10;;
74234;Laerm;62591;55.764;37.718;2023-07-20T03:32:37;49.89;41.30;61.50;;
74234;Laerm;62591;55.764;37.718;2023-07-20T03:35:07;49.48;41.37;58.08;;
74234;Laerm;62591;55.764;37.718;2023-07-20T03:37:36;49.92;41.75;56.77;;
74234;Laerm;62591;55.764;37.718;2023-07-20T03:40:08;50.09;42.75;64.58;;
74234;Laerm;62591;55.764;37.718;2023-07-20T03:42:37;49.93;40.13;65.19;;
74234;Laerm;62591;55.764;37.718;2023-07-20T03:45:06;49.54;40.87;63.77;;
74234;Laerm;62591;55.764;37.718;2023-07-20T03:47:35;51.08;41.05;58.34;;
74234;Laerm;62591;55.764;37.718;2023-07-20T03:50:07;49.81;45.13;57.35;;
74234;Laerm;62591;55.764;37.718;2023-07-20T03:52:37;48.59;41.72;61.52;;
74234;Laerm;62591;55.764;37.718;2023-07-20T03:55:08;50.14;43.02;57.40;;
74234;Laerm;62591;55.764;37.718;2023-07-20T03:57:38;49.87;43.87;55.54;;
74234;Laerm;62591;55.764;37.718;2023-07-20T04:00:08;48.26;41.56;56.15;;
74234;Laerm;62591;55.764;37.718;2023-07-20T04:02:40;51.40;45.02;57.15;;
74234;Laerm;62591;55.764;37.718;2023-07-20T04:05:09;48.89;41.77;55.37;;
74234;Laerm;62591;55.764;37.718;2023-07-20T04:07:38;51.54;43.13;62.46;;
74234;Laerm;62591;55.764;37.718;2023-07-20T04:10:09;48.34;41.60;55.92;;
74234;Laerm;62591;55.764;37.718;2023-07-20T04:12:38;48.44;41.98;52.77;;
74234;Laerm;62591;55.764;37.718;2023-07-20T04:15:08;49.86;43.23;55.42;;
74234;Laerm;62591;55.764;37.718;2023-07-20T04:17:37;51.13;44.46;57.28;;
74234;Laerm;62591;55.764;37.718;2023-07-20T04:20:06;50.09;42.86;64.93;;
74234;Laerm;62591;55.764;37.718;2023-07-20T04:22:35;49.83;45.08;57.79;;
74234;Laerm;62591;55.764;37.718;2023-07-20T04:25:09;50.97;43.77;57.82;;
74234;Laerm;62591;55.764;37.718;2023-07-20T04:27:38;47.76;42.10;57.47;;
74234;Laerm;62591;55.764;37.718;2023-07-20T04:30:07;48.25;41.71;54.40;;
74234;Laerm;62591;55.764;37.718;2023-07-20T04:32:37;51.12;43.27;58.71;;
74234;Laerm;62591;55.764;37.718;2023-07-20T04:35:18;51.82;44.36;60.89;;
74234;Laerm;62591;55.764;37.718;2023-07-20T04:37:49;51.28;43.57;63.74;;
74234;Laerm;62591;55.764;37.718;2023-07-20T04:40:21;51.79;46.08;60.70;;
74234;Laerm;62591;55.764;37.718;2023-07-20T04:42:50;51.18;43.42;60.64;;
74234;Laerm;62591;55.764;37.718;2023-07-20T04:45:19;51.35;43.04;59.69;;
74234;Laerm;62591;55.764;37.718;2023-07-20T04:47:50;49.19;41.96;63.92;;
74234;Laerm;62591;55.764;37.718;2023-07-20T04:50:19;50.66;42.57;61.76;;
74234;Laerm;62591;55.764;37.718;2023-07-20T04:52:48;50.23;44.55;61.40;;
74234;Laerm;62591;55.764;37.718;2023-07-20T04:55:21;49.71;42.81;61.43;;
74234;Laerm;62591;55.764;37.718;2023-07-20T04:57:49;51.12;42.72;60.35;;
74234;Laerm;62591;55.764;37.718;2023-07-20T05:00:21;48.54;40.78;57.62;;
74234;Laerm;62591;55.764;37.718;2023-07-20T05:02:49;50.95;42.61;58.36;;
74234;Laerm;62591;55.764;37.718;2023-07-20T05:05:18;50.62;44.62;56.84;;
74234;Laerm;62591;55.764;37.718;2023-07-20T05:07:47;50.54;43.95;62.10;;
74234;Laerm;62591;55.764;37.718;2023-07-20T05:10:16;50.58;45.59;55.23;;
74234;Laerm;62591;55.764;37.718;2023-07-20T05:12:46;52.86;44.50;61.42;;
74234;Laerm;62591;55.764;37.718;2023-07-20T05:15:16;49.75;45.56;55.23;;
74234;Laerm;62591;55.764;37.718;2023-07-20T05:17:45;51.53;43.20;68.92;;
74234;Laerm;62591;55.764;37.718;2023-07-20T05:20:16;53.10;43.66;65.37;;
74234;Laerm;62591;55.764;37.718;2023-07-20T05:22:45;51.58;46.43;56.91;;
74234;Laerm;62591;55.764;37.718;2023-07-20T05:25:13;51.37;45.71;60.58;;
74234;Laerm;62591;55.764;37.718;2023-07-20T05:27:46;51.11;43.78;61.84;;
74234;Laerm;62591;55.764;37.718;2023-07-20T05:30:15;50.84;44.67;59.46;;
74234;Laerm;62591;55.764;37.718;2023-07-20T05:32:44;49.77;41.91;59.41;;
74234;Laerm;62591;55.764;37.718;2023-07-20T05:35:18;52.11;43.84;67.39;;
74234;Laerm;62591;55.764;37.718;2023-07-20T05:37:47;52.00;44.86;57.89;;
74234;Laerm;62591;55.764;37.718;2023-07-20T05:40:15;51.84;43.45;61.12;;
74234;Laerm;62591;55.764;37.718;2023-07-20T05:42:48;52.58;48.31;55.79;;
74234;Laerm;62591;55.764;37.718;2023-07-20T05:45:19;51.97;46.44;57.50;;
74234;Laerm;62591;55.764;37.718;2023-07-20T05:47:48;51.52;45.24;61.04;;
74234;Laerm;62591;55.764;37.718;2023-07-20T05:50:17;52.80;46.25;66.39;;
74234;Laerm;62591;55.764;37.718;2023-07-20T05:52:45;50.54;43.37;57.16;;
74234;Laerm;62591;55.764;37.718;2023-07-20T05:55:14;51.09;45.53;65.79;;
74234;Laerm;62591;55.764;37.718;2023-07-20T05:57:45;51.78;45.07;67.56;;
74234;Laerm;62591;55.764;37.718;2023-07-20T06:00:17;51.84;43.25;58.58;;
74234;Laerm;62591;55.764;37.718;2023-07-20T06:02:53;49.96;42.32;64.06;;
74234;Laerm;62591;55.764;37.718;2023-07-20T06:05:22;52.28;46.79;62.95;;
74234;Laerm;62591;55.764;37.718;2023-07-20T06:07:55;50.39;44.45;57.82;;
74234;Laerm;62591;55.764;37.718;2023-07-20T06:10:24;50.25;43.12;64.61;;
74234;Laerm;62591;55.764;37.718;2023-07-20T06:12:53;51.27;44.98;57.65;;
74234;Laerm;62591;55.764;37.718;2023-07-20T06:15:31;51.42;45.19;59.41;;
74234;Laerm;62591;55.764;37.718;2023-07-20T06:18:02;50.63;45.49;55.27;;
74234;Laerm;62591;55.764;37.718;2023-07-20T06:20:31;49.76;43.71;58.45;;
74234;Laerm;62591;55.764;37.718;2023-07-20T06:22:59;49.74;43.46;58.90;;
74234;Laerm;62591;55.764;37.718;2023-07-20T06:25:28;49.91;44.98;69.49;;
74234;Laerm;62591;55.764;37.718;2023-07-20T06:27:57;51.16;44.92;65.69;;
74234;Laerm;62591;55.764;37.718;2023-07-20T06:30:27;50.69;45.08;63.69;;
74234;Laerm;62591;55.764;37.718;2023-07-20T06:32:56;50.94;45.04;57.17;;
74234;Laerm;62591;55.764;37.718;2023-07-20T06:35:24;51.99;46.67;65.42;;
74234;Laerm;62591;55.764;37.718;2023-07-20T06:37:53;53.74;45.46;63.11;;
74234;Laerm;62591;55.764;37.718;2023-07-20T06:40:22;52.89;47.81;65.57;;
74234;Laerm;62591;55.764;37.718;2023-07-20T06:42:54;51.64;44.29;64.26;;
74234;Laerm;62591;55.764;37.718;2023-07-20T06:45:27;50.53;43.83;60.52;;
74234;Laerm;62591;55.764;37.718;2023-07-20T06:47:55;49.42;42.29;58.14;;
74234;Laerm;62591;55.764;37.718;2023-07-20T06:50:24;51.58;45.34;59.63;;
74234;Laerm;62591;55.764;37.718;2023-07-20T06:52:54;51.10;44.19;65.02;;
74234;Laerm;62591;55.764;37.718;2023-07-20T06:55:25;51.95;46.27;57.22;;
74234;Laerm;62591;55.764;37.718;2023-07-20T06:57:58;67.92;49.92;83.49;;
74234;Laerm;62591;55.764;37.718;2023-07-20T07:00:29;52.13;46.49;63.41;;
74234;Laerm;62591;55.764;37.718;2023-07-20T07:02:58;50.62;45.78;59.21;;
74234;Laerm;62591;55.764;37.718;2023-07-20T07:05:26;50.94;45.27;56.14;;
74234;Laerm;62591;55.764;37.718;2023-07-20T07:08:03;51.14;44.69;66.16;;
74234;Laerm;62591;55.764;37.718;2023-07-20T07:10:32;51.42;44.02;65.30;;
74234;Laerm;62591;55.764;37.718;2023-07-20T07:13:01;50.97;43.00;59.44;;
74234;Laerm;62591;55.764;37.718;2023-07-20T07:15:33;54.29;45.32;63.80;;
74234;Laerm;62591;55.764;37.718;2023-07-20T07:18:05;51.84;45.28;59.88;;
74234;Laerm;62591;55.764;37.718;2023-07-20T07:20:33;50.31;44.63;58.48;;
74234;Laerm;62591;55.764;37.718;2023-07-20T07:23:04;50.91;44.70;59.52;;
74234;Laerm;62591;55.764;37.718;2023-07-20T07:25:32;54.63;47.42;62.91;;
74234;Laerm;62591;55.764;37.718;2023-07-20T07:28:01;52.44;45.18;60.80;;
74234;Laerm;62591;55.764;37.718;2023-07-20T07:30:30;49.67;43.69;65.25;;
74234;Laerm;62591;55.764;37.718;2023-07-20T07:33:02;51.04;44.55;56.39;;
74234;Laerm;62591;55.764;37.718;2023-07-20T07:35:31;53.53;46.04;60.41;;
74234;Laerm;62591;55.764;37.718;2023-07-20T07:37:59;53.28;46.48;62.79;;
74234;Laerm;62591;55.764;37.718;2023-07-20T07:40:45;51.45;43.34;60.13;;
74234;Laerm;62591;55.764;37.718;2023-07-20T07:43:14;49.47;43.06;64.58;;
74234;Laerm;62591;55.764;37.718;2023-07-20T07:45:43;52.05;45.53;63.03;;
74234;Laerm;62591;55.764;37.718;2023-07-20T07:48:14;50.35;43.80;56.12;;
74234;Laerm;62591;55.764;37.718;2023-07-20T07:51:12;50.06;43.93;67.78;;
74234;Laerm;62591;55.764;37.718;2023-07-20T07:53:42;54.39;45.25;68.19;;
74234;Laerm;62591;55.764;37.718;2023-07-20T07:56:11;51.65;46.79;56.75;;
74234;Laerm;62591;55.764;37.718;2023-07-20T07:58:40;51.68;44.61;64.18;;
74234;Laerm;62591;55.764;37.718;2023-07-20T08:01:08;53.29;47.66;62.15;;
74234;Laerm;62591;55.764;37.718;2023-07-20T08:03:39;51.97;44.13;58.04;;
74234;Laerm;62591;55.764;37.718;2023-07-20T08:06:07;51.02;44.69;59.34;;
74234;Laerm;62591;55.764;37.718;2023-07-20T08:08:36;49.06;42.16;58.11;;
74234;Laerm;62591;55.764;37.718;2023-07-20T08:11:05;53.79;47.17;62.05;;
74234;Laerm;62591;55.764;37.718;2023-07-20T08:13:34;52.90;46.71;60.89;;
74234;Laerm;62591;55.764;37.718;2023-07-20T08:16:03;51.74;46.63;58.85;;
74234;Laerm;62591;55.764;37.718;2023-07-20T08:18:32;50.46;44.86;56.11;;
74234;Laerm;62591;55.764;37.718;2023-07-20T08:21:03;52.30;45.21;59.60;;
74234;Laerm;62591;55.764;37.718;2023-07-20T08:23:31;49.93;43.49;62.53;;
74234;Laerm;62591;55.764;37.718;2023-07-20T08:26:00;53.74;46.87;61.98;;
74234;Laerm;62591;55.764;37.718;2023-07-20T08:28:29;53.90;44.96;60.83;;
74234;Laerm;62591;55.764;37.718;2023-07-20T08:30:57;48.81;44.16;53.82;;
74234;Laerm;62591;55.764;37.718;2023-07-20T08:33:26;48.48;42.96;58.86;;
74234;Laerm;62591;55.764;37.718;2023-07-20T08:35:56;50.94;43.50;67.88;;
74234;Laerm;62591;55.764;37.718;2023-07-20T08:38:27;54.89;48.21;61.60;;
74234;Laerm;62591;55.764;37.718;2023-07-20T08:40:55;53.83;47.48;71.85;;
74234;Laerm;62591;55.764;37.718;2023-07-20T08:43:27;55.25;48.19;63.61;;
74234;Laerm;62591;55.764;37.718;2023-07-20T08:45:57;50.52;43.88;56.23;;
74234;Laerm;62591;55.764;37.718;2023-07-20T08:48:27;54.41;47.00;63.90;;
74234;Laerm;62591;55.764;37.718;2023-07-20T08:50:56;51.88;45.73;67.23;;
74234;Laerm;62591;55.764;37.718;2023-07-20T08:53:29;52.42;47.36;62.68;;
74234;Laerm;62591;55.764;37.718;2023-07-20T08:55:59;49.52;44.43;57.45;;
74234;Laerm;62591;55.764;37.718;2023-07-20T08:58:28;49.70;42.51;69.11;;
74234;Laerm;62591;55.764;37.718;2023-07-20T09:00:58;52.36;45.19;61.00;;
74234;Laerm;62591;55.764;37.718;2023-07-20T09:03:28;48.18;43.35;56.19;;
74234;Laerm;62591;55.764;37.718;2023-07-20T09:05:57;51.59;42.92;61.90;;
74234;Laerm;62591;55.764;37.718;2023-07-20T09:08:26;48.77;42.97;61.90;;
74234;Laerm;62591;55.764;37.718;2023-07-20T09:10:56;49.80;45.43;58.23;;
74234;Laerm;62591;55.764;37.718;2023-07-20T09:13:26;47.96;42.33;55.72;;
74234;Laerm;62591;55.764;37.718;2023-07-20T09:15:55;49.13;43.52;57.52;;
74234;Laerm;62591;55.764;37.718;2023-07-20T09:18:24;51.23;43.20;58.46;;
74234;Laerm;62591;55.764;37.718;2023-07-20T09:20:58;48.82;42.26;57.91;;
74234;Laerm;62591;55.764;37.718;2023-07-20T09:23:31;51.17;44.95;59.00;;
74234;Laerm;62591;55.764;37.718;2023-07-20T09:26:09;55.88;45.42;62.41;;
74234;Laerm;62591;55.764;37.718;2023-07-20T09:28:42;50.00;42.68;58.08;;
74234;Laerm;62591;55.764;37.718;2023-07-20T09:31:17;53.22;44.09;65.27;;
74234;Laerm;62591;55.764;37.718;2023-07-20T09:33:47;51.90;45.18;64.38;;
74234;Laerm;62591;55.764;37.718;2023-07-20T09:36:19;53.24;43.92;63.96;;
74234;Laerm;62591;55.764;37.718;2023-07-20T09:39:08;52.40;45.25;66.28;;
74234;Laerm;62591;55.764;37.718;2023-07-20T09:41:41;51.22;42.34;65.36;;
74234;Laerm;62591;55.764;37.718;2023-07-20T09:44:14;63.45;47.79;72.97;;
74234;Laerm;62591;55.764;37.718;2023-07-20T09:46:46;64.40;52.51;75.18;;
74234;Laerm;62591;55.764;37.718;2023-07-20T09:49:18;53.43;45.23;64.67;;
74234;Laerm;62591;55.764;37.718;2023-07-20T09:51:50;52.66;44.31;68.12;;
74234;Laerm;62591;55.764;37.718;2023-07-20T09:54:21;51.54;43.74;66.54;;
74234;Laerm;62591;55.764;37.718;2023-07-20T09:56:52;52.06;43.51;66.17;;
74234;Laerm;62591;55.764;37.718;2023-07-20T09:59:22;52.71;45.59;64.88;;
74234;Laerm;62591;55.764;37.718;2023-07-20T10:01:53;62.39;50.24;71.10;;
74234;Laerm;62591;55.764;37.718;2023-07-20T10:04:23;67.10;64.24;71.65;;
74234;Laerm;62591;55.764;37.718;2023-07-20T10:06:54;65.50;61.28;69.52;;
74234;Laerm;62591;55.764;37.718;2023-07-20T10:09:24;64.95;52.40;71.26;;
74234;Laerm;62591;55.764;37.718;2023-07-20T10:11:57;61.15;53.25;68.51;;
74234;Laerm;62591;55.764;37.718;2023-07-20T10:14:49;60.31;49.81;72.20;;
74234;Laerm;62591;55.764;37.718;2023-07-20T10:17:31;53.44;47.15;65.24;;
74234;Laerm;62591;55.764;37.718;2023-07-20T10:20:00;51.18;46.02;58.48;;
74234;Laerm;62591;55.764;37.718;2023-07-20T10:22:36;53.40;45.29;59.04;;
74234;Laerm;62591;55.764;37.718;2023-07-20T10:25:09;52.48;44.20;58.93;;
74234;Laerm;62591;55.764;37.718;2023-07-20T10:27:40;51.43;43.40;65.08;;
74234;Laerm;62591;55.764;37.718;2023-07-20T10:30:09;51.58;41.92;65.69;;
74234;Laerm;62591;55.764;37.718;2023-07-20T10:32:40;49.39;41.38;68.67;;
74234;Laerm;62591;55.764;37.718;2023-07-20T10:35:14;52.24;42.98;68.32;;
74234;Laerm;62591;55.764;37.718;2023-07-20T10:37:51;56.11;43.59;67.88;;
74234;Laerm;62591;55.764;37.718;2023-07-20T10:40:25;58.18;42.34;81.94;;
74234;Laerm;62591;55.764;37.718;2023-07-20T10:43:01;50.08;42.87;58.93;;
74234;Laerm;62591;55.764;37.718;2023-07-20T10:45:36;47.02;40.33;55.55;;
74234;Laerm;62591;55.764;37.718;2023-07-20T10:48:06;48.64;40.94;57.38;;
74234;Laerm;62591;55.764;37.718;2023-07-20T10:50:36;49.75;41.73;57.20;;
74234;Laerm;62591;55.764;37.718;2023-07-20T10:53:05;48.46;41.96;56.47;;
74234;Laerm;62591;55.764;37.718;2023-07-20T10:55:38;49.85;41.46;58.98;;
74234;Laerm;62591;55.764;37.718;2023-07-20T10:58:09;52.63;40.02;62.68;;
74234;Laerm;62591;55.764;37.718;2023-07-20T11:00:57;51.43;41.02;60.99;;
74234;Laerm;62591;55.764;37.718;2023-07-20T11:03:29;50.54;41.63;70.22;;
74234;Laerm;62591;55.764;37.718;2023-07-20T11:06:31;49.85;39.84;74.49;;
74234;Laerm;62591;55.764;37.718;2023-07-20T11:09:07;49.03;40.94;64.79;;
74234;Laerm;62591;55.764;37.718;2023-07-20T11:11:43;47.43;41.06;59.79;;
74234;Laerm;62591;55.764;37.718;2023-07-20T11:14:23;50.86;42.41;70.47;;
74234;Laerm;62591;55.764;37.718;2023-07-20T11:16:53;51.24;44.11;63.15;;
74234;Laerm;62591;55.764;37.718;2023-07-20T11:19:24;51.39;44.00;67.21;;
74234;Laerm;62591;55.764;37.718;2023-07-20T11:21:57;51.36;44.65;62.04;;
74234;Laerm;62591;55.764;37.718;2023-07-20T11:24:31;48.52;41.47;61.12;;
74234;Laerm;62591;55.764;37.718;2023-07-20T11:27:00;51.98;45.87;61.63;;
74234;Laerm;62591;55.764;37.718;2023-07-20T11:29:31;57.64;52.66;63.59;;
74234;Laerm;62591;55.764;37.718;2023-07-20T11:32:01;53.95;49.20;63.33;;
74234;Laerm;62591;55.764;37.718;2023-07-20T11:34:33;54.98;49.43;62.31;;
74234;Laerm;62591;55.764;37.718;2023-07-20T11:37:02;54.13;49.86;64.25;;
74234;Laerm;62591;55.764;37.718;2023-07-20T11:39:34;54.35;50.19;63.59;;
74234;Laerm;62591;55.764;37.718;2023-07-20T11:42:04;51.87;46.28;65.20;;
74234;Laerm;62591;55.764;37.718;2023-07-20T11:44:35;50.68;44.33;60.12;;
74234;Laerm;62591;55.764;37.718;2023-07-20T11:47:04;50.40;45.40;60.15;;
74234;Laerm;62591;55.764;37.718;2023-07-20T11:49:42;50.51;45.52;60.11;;
74234;Laerm;62591;55.764;37.718;2023-07-20T11:52:13;54.88;44.81;71.51;;
74234;Laerm;62591;55.764;37.718;2023-07-20T11:54:44;50.65;43.91;63.36;;
74234;Laerm;62591;55.764;37.718;2023-07-20T11:57:16;51.13;43.91;59.42;;
74234;Laerm;62591;55.764;37.718;2023-07-20T11:59:54;48.36;41.62;62.20;;
74234;Laerm;62591;55.764;37.718;2023-07-20T12:02:27;49.43;41.85;58.20;;
74234;Laerm;62591;55.764;37.718;2023-07-20T12:04:57;50.44;43.48;62.53;;
74234;Laerm;62591;55.764;37.718;2023-07-20T12:07:27;51.10;43.48;63.96;;
74234;Laerm;62591;55.764;37.718;2023-07-20T12:10:34;49.32;43.47;59.53;;
74234;Laerm;62591;55.764;37.718;2023-07-20T12:13:11;51.01;44.02;63.42;;
74234;Laerm;62591;55.764;37.718;2023-07-20T12:15:41;55.10;45.68;62.42;;
74234;Laerm;62591;55.764;37.718;2023-07-20T12:18:11;52.92;45.33;60.32;;
74234;Laerm;62591;55.764;37.718;2023-07-20T12:20:40;50.40;44.93;55.63;;
74234;Laerm;62591;55.764;37.718;2023-07-20T12:23:11;48.77;43.68;59.57;;
74234;Laerm;62591;55.764;37.718;2023-07-20T12:25:42;50.08;42.19;56.61;;
74234;Laerm;62591;55.764;37.718;2023-07-20T12:28:15;50.14;41.77;57.41;;
74234;Laerm;62591;55.764;37.718;2023-07-20T12:30:46;50.33;43.43;58.63;;
74234;Laerm;62591;55.764;37.718;2023-07-20T12:33:16;49.54;43.55;56.73;;
74234;Laerm;62591;55.764;37.718;2023-07-20T12:35:45;53.20;42.81;59.21;;
74234;Laerm;62591;55.764;37.718;2023-07-20T12:38:13;48.87;42.62;57.12;;
74234;Laerm;62591;55.764;37.718;2023-07-20T12:40:43;49.72;42.24;63.67;;
74234;Laerm;62591;55.764;37.718;2023-07-20T12:43:12;51.92;44.21;56.91;;
74234;Laerm;62591;55.764;37.718;2023-07-20T12:45:41;51.24;43.40;60.43;;
74234;Laerm;62591;55.764;37.718;2023-07-20T12:48:12;49.46;43.06;56.11;;
74234;Laerm;62591;55.764;37.718;2023-07-20T12:50:41;50.61;46.18;61.72;;
74234;Laerm;62591;55.764;37.718;2023-07-20T12:53:09;50.37;45.82;59.09;;
74234;Laerm;62591;55.764;37.718;2023-07-20T12:55:41;52.69;45.20;65.06;;
74234;Laerm;62591;55.764;37.718;2023-07-20T12:58:10;51.63;45.84;66.56;;
74234;Laerm;62591;55.764;37.718;2023-07-20T13:00:38;51.84;44.56;69.94;;
74234;Laerm;62591;55.764;37.718;2023-07-20T13:03:08;50.85;45.87;58.65;;
74234;Laerm;62591;55.764;37.718;2023-07-20T13:05:59;51.28;45.36;60.45;;
74234;Laerm;62591;55.764;37.718;2023-07-20T13:08:33;51.03;45.03;58.82;;
74234;Laerm;62591;55.764;37.718;2023-07-20T13:11:01;51.10;45.03;57.78;;
74234;Laerm;62591;55.764;37.718;2023-07-20T13:13:32;50.81;43.96;57.30;;
74234;Laerm;62591;55.764;37.718;2023-07-20T13:16:02;48.54;42.51;58.94;;
74234;Laerm;62591;55.764;37.718;2023-07-20T13:18:32;49.77;43.01;55.86;;
74234;Laerm;62591;55.764;37.718;2023-07-20T13:21:03;48.96;41.79;56.76;;
74234;Laerm;62591;55.764;37.718;2023-07-20T13:23:38;59.12;42.75;68.79;;
74234;Laerm;62591;55.764;37.718;2023-07-20T13:26:07;48.88;43.01;63.74;;
74234;Laerm;62591;55.764;37.718;2023-07-20T13:28:36;48.57;42.72;55.27;;
74234;Laerm;62591;55.764;37.718;2023-07-20T13:31:04;48.69;43.30;58.39;;
74234;Laerm;62591;55.764;37.718;2023-07-20T13:33:33;50.19;44.33;60.40;;
74234;Laerm;62591;55.764;37.718;2023-07-20T13:36:07;48.92;43.39;53.27;;
74234;Laerm;62591;55.764;37.718;2023-07-20T13:38:36;49.03;41.48;57.96;;
74234;Laerm;62591;55.764;37.718;2023-07-20T13:41:04;47.12;42.04;54.39;;
74234;Laerm;62591;55.764;37.718;2023-07-20T13:43:33;50.04;43.16;61.22;;
74234;Laerm;62591;55.764;37.718;2023-07-20T13:46:02;51.56;44.79;63.97;;
74234;Laerm;62591;55.764;37.718;2023-07-20T13:48:30;52.85;46.65;69.64;;
74234;Laerm;62591;55.764;37.718;2023-07-20T13:51:03;52.81;45.21;63.84;;
74234;Laerm;62591;55.764;37.718;2023-07-20T13:53:33;52.81;45.40;65.64;;